sensor_id;sensor_type;location;lat;lon;timestamp;P1;durP1;ratioP1;P2;durP2;ratioP2
21158;SDS011;10737;45.436;4.390;2022-10-26T00:00:21;7.32;;;4.70;;
21158;SDS011;10737;45.436;4.390;2022-10-26T00:05:24;6.60;;;4.70;;
21158;SDS011;10737;45.436;4.390;2022-10-26T00:10:29;17.85;;;5.80;;
21158;SDS011;10737;45.436;4.390;2022-10-26T00:15:32;11.40;;;5.80;;
21158;SDS011;10737;45.436;4.390;2022-10-26T00:20:35;9.93;;;5.85;;
21158;SDS011;10737;45.436;4.390;2022-10-26T00:25:40;12.80;;;5.50;;
21158;SDS011;10737;45.436;4.390;2022-10-26T00:30:43;15.10;;;5.60;;
21158;SDS011;10737;45.436;4.390;2022-10-26T00:35:46;10.60;;;5.65;;
21158;SDS011;10737;45.436;4.390;2022-10-26T00:40:51;9.93;;;5.30;;
21158;SDS011;10737;45.436;4.390;2022-10-26T00:45:54;13.55;;;5.90;;
21158;SDS011;10737;45.436;4.390;2022-10-26T00:50:59;17.75;;;7.57;;
21158;SDS011;10737;45.436;4.390;2022-10-26T00:56:04;15.48;;;5.97;;
21158;SDS011;10737;45.436;4.390;2022-10-26T01:01:08;14.60;;;6.22;;
21158;SDS011;10737;45.436;4.390;2022-10-26T01:06:12;15.05;;;6.32;;
21158;SDS011;10737;45.436;4.390;2022-10-26T01:11:17;12.38;;;6.45;;
21158;SDS011;10737;45.436;4.390;2022-10-26T01:21:47;9.18;;;6.47;;
21158;SDS011;10737;45.436;4.390;2022-10-26T01:32:17;16.13;;;7.28;;
21158;SDS011;10737;45.436;4.390;2022-10-26T01:37:24;22.55;;;7.07;;
21158;SDS011;10737;45.436;4.390;2022-10-26T01:42:28;21.83;;;7.38;;
21158;SDS011;10737;45.436;4.390;2022-10-26T01:47:34;16.13;;;7.60;;
21158;SDS011;10737;45.436;4.390;2022-10-26T01:52:38;16.23;;;7.35;;
21158;SDS011;10737;45.436;4.390;2022-10-26T01:57:41;10.27;;;6.95;;
21158;SDS011;10737;45.436;4.390;2022-10-26T02:08:02;17.08;;;8.45;;
21158;SDS011;10737;45.436;4.390;2022-10-26T02:13:12;19.75;;;7.57;;
21158;SDS011;10737;45.436;4.390;2022-10-26T02:18:19;16.05;;;7.13;;
21158;SDS011;10737;45.436;4.390;2022-10-26T02:23:24;14.98;;;7.97;;
21158;SDS011;10737;45.436;4.390;2022-10-26T02:28:29;19.10;;;7.78;;
21158;SDS011;10737;45.436;4.390;2022-10-26T02:33:35;20.85;;;8.18;;
21158;SDS011;10737;45.436;4.390;2022-10-26T02:38:41;19.20;;;8.48;;
21158;SDS011;10737;45.436;4.390;2022-10-26T02:43:46;12.32;;;6.95;;
21158;SDS011;10737;45.436;4.390;2022-10-26T02:48:52;16.25;;;8.07;;
21158;SDS011;10737;45.436;4.390;2022-10-26T02:53:58;19.33;;;8.50;;
21158;SDS011;10737;45.436;4.390;2022-10-26T02:59:03;15.52;;;9.55;;
21158;SDS011;10737;45.436;4.390;2022-10-26T03:04:07;14.38;;;7.97;;
21158;SDS011;10737;45.436;4.390;2022-10-26T03:09:12;19.13;;;8.02;;
21158;SDS011;10737;45.436;4.390;2022-10-26T03:14:15;15.82;;;8.05;;
21158;SDS011;10737;45.436;4.390;2022-10-26T03:19:18;15.30;;;7.88;;
21158;SDS011;10737;45.436;4.390;2022-10-26T03:24:23;20.95;;;8.95;;
21158;SDS011;10737;45.436;4.390;2022-10-26T03:29:26;17.73;;;7.72;;
21158;SDS011;10737;45.436;4.390;2022-10-26T03:34:29;15.18;;;8.55;;
21158;SDS011;10737;45.436;4.390;2022-10-26T03:39:33;18.13;;;8.20;;
21158;SDS011;10737;45.436;4.390;2022-10-26T03:44:36;14.82;;;8.27;;
21158;SDS011;10737;45.436;4.390;2022-10-26T03:49:40;15.07;;;8.60;;
21158;SDS011;10737;45.436;4.390;2022-10-26T03:54:44;13.18;;;8.10;;
21158;SDS011;10737;45.436;4.390;2022-10-26T03:59:47;19.85;;;8.60;;
21158;SDS011;10737;45.436;4.390;2022-10-26T04:04:50;17.60;;;8.88;;
21158;SDS011;10737;45.436;4.390;2022-10-26T04:09:55;17.88;;;7.78;;
21158;SDS011;10737;45.436;4.390;2022-10-26T04:14:58;16.50;;;7.65;;
21158;SDS011;10737;45.436;4.390;2022-10-26T04:20:02;12.18;;;7.93;;
21158;SDS011;10737;45.436;4.390;2022-10-26T04:25:07;14.32;;;7.88;;
21158;SDS011;10737;45.436;4.390;2022-10-26T04:30:11;13.93;;;7.35;;
21158;SDS011;10737;45.436;4.390;2022-10-26T04:35:15;15.57;;;7.68;;
21158;SDS011;10737;45.436;4.390;2022-10-26T04:40:19;18.63;;;8.27;;
21158;SDS011;10737;45.436;4.390;2022-10-26T04:45:25;14.85;;;8.90;;
21158;SDS011;10737;45.436;4.390;2022-10-26T04:50:31;15.75;;;8.27;;
21158;SDS011;10737;45.436;4.390;2022-10-26T04:55:38;17.60;;;7.95;;
21158;SDS011;10737;45.436;4.390;2022-10-26T05:00:41;19.08;;;8.52;;
21158;SDS011;10737;45.436;4.390;2022-10-26T05:05:44;18.17;;;8.50;;
21158;SDS011;10737;45.436;4.390;2022-10-26T05:10:50;20.92;;;8.50;;
21158;SDS011;10737;45.436;4.390;2022-10-26T05:15:53;14.85;;;8.68;;
21158;SDS011;10737;45.436;4.390;2022-10-26T05:20:56;17.73;;;8.60;;
21158;SDS011;10737;45.436;4.390;2022-10-26T05:26:01;14.13;;;7.72;;
21158;SDS011;10737;45.436;4.390;2022-10-26T05:31:04;13.70;;;8.60;;
21158;SDS011;10737;45.436;4.390;2022-10-26T05:36:08;20.00;;;7.97;;
21158;SDS011;10737;45.436;4.390;2022-10-26T05:41:12;18.30;;;8.15;;
21158;SDS011;10737;45.436;4.390;2022-10-26T05:46:15;20.63;;;8.23;;
21158;SDS011;10737;45.436;4.390;2022-10-26T05:51:19;13.88;;;8.23;;
21158;SDS011;10737;45.436;4.390;2022-10-26T05:56:29;17.40;;;8.30;;
21158;SDS011;10737;45.436;4.390;2022-10-26T06:01:38;22.83;;;9.23;;
21158;SDS011;10737;45.436;4.390;2022-10-26T06:06:46;16.23;;;8.73;;
21158;SDS011;10737;45.436;4.390;2022-10-26T06:11:53;21.20;;;8.32;;
21158;SDS011;10737;45.436;4.390;2022-10-26T06:17:01;17.52;;;8.18;;
21158;SDS011;10737;45.436;4.390;2022-10-26T06:22:10;13.23;;;8.57;;
21158;SDS011;10737;45.436;4.390;2022-10-26T06:27:22;14.25;;;8.88;;
21158;SDS011;10737;45.436;4.390;2022-10-26T06:32:28;19.08;;;9.15;;
21158;SDS011;10737;45.436;4.390;2022-10-26T06:37:31;15.23;;;9.35;;
21158;SDS011;10737;45.436;4.390;2022-10-26T06:42:37;17.77;;;9.43;;
21158;SDS011;10737;45.436;4.390;2022-10-26T06:47:42;16.40;;;8.93;;
21158;SDS011;10737;45.436;4.390;2022-10-26T06:52:47;21.13;;;9.30;;
21158;SDS011;10737;45.436;4.390;2022-10-26T06:57:54;20.45;;;10.23;;
21158;SDS011;10737;45.436;4.390;2022-10-26T07:02:57;12.82;;;8.63;;
21158;SDS011;10737;45.436;4.390;2022-10-26T07:08:00;16.88;;;10.88;;
21158;SDS011;10737;45.436;4.390;2022-10-26T07:13:05;20.38;;;9.23;;
21158;SDS011;10737;45.436;4.390;2022-10-26T07:18:08;25.95;;;11.23;;
21158;SDS011;10737;45.436;4.390;2022-10-26T07:23:11;18.67;;;9.35;;
21158;SDS011;10737;45.436;4.390;2022-10-26T07:28:18;22.85;;;10.20;;
21158;SDS011;10737;45.436;4.390;2022-10-26T07:33:21;24.38;;;11.52;;
21158;SDS011;10737;45.436;4.390;2022-10-26T07:38:24;14.65;;;8.43;;
21158;SDS011;10737;45.436;4.390;2022-10-26T07:43:29;22.20;;;11.23;;
21158;SDS011;10737;45.436;4.390;2022-10-26T07:48:32;19.92;;;9.25;;
21158;SDS011;10737;45.436;4.390;2022-10-26T07:53:35;12.52;;;8.13;;
21158;SDS011;10737;45.436;4.390;2022-10-26T07:58:40;13.30;;;8.35;;
21158;SDS011;10737;45.436;4.390;2022-10-26T08:03:43;28.88;;;11.88;;
21158;SDS011;10737;45.436;4.390;2022-10-26T08:08:46;20.90;;;9.95;;
21158;SDS011;10737;45.436;4.390;2022-10-26T08:13:51;22.45;;;9.52;;
21158;SDS011;10737;45.436;4.390;2022-10-26T08:18:54;20.58;;;9.30;;
21158;SDS011;10737;45.436;4.390;2022-10-26T08:23:58;25.67;;;11.05;;
21158;SDS011;10737;45.436;4.390;2022-10-26T08:29:03;28.98;;;14.35;;
21158;SDS011;10737;45.436;4.390;2022-10-26T08:34:06;19.58;;;8.82;;
21158;SDS011;10737;45.436;4.390;2022-10-26T08:39:09;16.58;;;9.82;;
21158;SDS011;10737;45.436;4.390;2022-10-26T08:44:19;16.45;;;10.85;;
21158;SDS011;10737;45.436;4.390;2022-10-26T08:49:24;28.00;;;12.07;;
21158;SDS011;10737;45.436;4.390;2022-10-26T08:54:31;26.50;;;14.68;;
21158;SDS011;10737;45.436;4.390;2022-10-26T08:59:39;23.83;;;12.80;;
21158;SDS011;10737;45.436;4.390;2022-10-26T09:04:45;25.95;;;11.57;;
21158;SDS011;10737;45.436;4.390;2022-10-26T09:09:50;30.20;;;13.15;;
21158;SDS011;10737;45.436;4.390;2022-10-26T09:15:02;22.60;;;10.63;;
21158;SDS011;10737;45.436;4.390;2022-10-26T09:20:27;20.15;;;11.65;;
21158;SDS011;10737;45.436;4.390;2022-10-26T09:25:33;27.27;;;11.48;;
21158;SDS011;10737;45.436;4.390;2022-10-26T09:30:41;20.45;;;10.65;;
21158;SDS011;10737;45.436;4.390;2022-10-26T09:35:46;16.33;;;8.68;;
21158;SDS011;10737;45.436;4.390;2022-10-26T09:40:53;14.77;;;9.32;;
21158;SDS011;10737;45.436;4.390;2022-10-26T09:45:58;22.20;;;12.30;;
21158;SDS011;10737;45.436;4.390;2022-10-26T09:51:01;21.50;;;8.80;;
21158;SDS011;10737;45.436;4.390;2022-10-26T09:56:05;24.15;;;10.95;;
21158;SDS011;10737;45.436;4.390;2022-10-26T10:01:20;25.45;;;10.93;;
21158;SDS011;10737;45.436;4.390;2022-10-26T10:06:24;28.77;;;11.27;;
21158;SDS011;10737;45.436;4.390;2022-10-26T10:11:35;20.05;;;9.32;;
21158;SDS011;10737;45.436;4.390;2022-10-26T10:16:40;19.33;;;10.45;;
21158;SDS011;10737;45.436;4.390;2022-10-26T10:21:44;25.75;;;13.15;;
21158;SDS011;10737;45.436;4.390;2022-10-26T10:26:57;21.02;;;10.95;;
21158;SDS011;10737;45.436;4.390;2022-10-26T10:32:02;18.35;;;10.90;;
21158;SDS011;10737;45.436;4.390;2022-10-26T10:37:06;20.02;;;9.75;;
21158;SDS011;10737;45.436;4.390;2022-10-26T10:42:14;13.93;;;9.07;;
21158;SDS011;10737;45.436;4.390;2022-10-26T10:47:21;18.98;;;9.30;;
21158;SDS011;10737;45.436;4.390;2022-10-26T10:52:25;15.35;;;7.85;;
21158;SDS011;10737;45.436;4.390;2022-10-26T10:57:30;15.82;;;7.78;;
21158;SDS011;10737;45.436;4.390;2022-10-26T11:02:56;18.88;;;11.68;;
21158;SDS011;10737;45.436;4.390;2022-10-26T11:08:05;11.48;;;6.20;;
21158;SDS011;10737;45.436;4.390;2022-10-26T11:13:12;15.00;;;8.93;;
21158;SDS011;10737;45.436;4.390;2022-10-26T11:18:20;17.90;;;7.50;;
21158;SDS011;10737;45.436;4.390;2022-10-26T11:23:24;11.18;;;7.35;;
21158;SDS011;10737;45.436;4.390;2022-10-26T11:28:34;10.80;;;7.68;;
21158;SDS011;10737;45.436;4.390;2022-10-26T11:33:41;12.38;;;6.72;;
21158;SDS011;10737;45.436;4.390;2022-10-26T11:38:47;9.02;;;7.05;;
21158;SDS011;10737;45.436;4.390;2022-10-26T11:44:00;9.73;;;6.78;;
21158;SDS011;10737;45.436;4.390;2022-10-26T11:49:09;14.77;;;10.18;;
21158;SDS011;10737;45.436;4.390;2022-10-26T11:54:14;11.30;;;7.05;;
21158;SDS011;10737;45.436;4.390;2022-10-26T11:59:19;11.90;;;6.32;;
21158;SDS011;10737;45.436;4.390;2022-10-26T12:04:24;10.00;;;6.25;;
21158;SDS011;10737;45.436;4.390;2022-10-26T12:09:33;11.52;;;5.93;;
21158;SDS011;10737;45.436;4.390;2022-10-26T12:14:40;12.55;;;10.10;;
21158;SDS011;10737;45.436;4.390;2022-10-26T12:19:47;14.02;;;6.80;;
21158;SDS011;10737;45.436;4.390;2022-10-26T12:25:04;10.00;;;6.60;;
21158;SDS011;10737;45.436;4.390;2022-10-26T12:30:21;6.28;;;5.40;;
21158;SDS011;10737;45.436;4.390;2022-10-26T12:35:31;13.48;;;6.93;;
21158;SDS011;10737;45.436;4.390;2022-10-26T12:40:39;9.98;;;5.75;;
21158;SDS011;10737;45.436;4.390;2022-10-26T12:45:44;11.00;;;6.05;;
21158;SDS011;10737;45.436;4.390;2022-10-26T12:50:50;8.50;;;6.72;;
21158;SDS011;10737;45.436;4.390;2022-10-26T12:55:58;8.63;;;5.43;;
21158;SDS011;10737;45.436;4.390;2022-10-26T13:01:16;18.48;;;13.52;;
21158;SDS011;10737;45.436;4.390;2022-10-26T13:06:29;14.55;;;8.02;;
21158;SDS011;10737;45.436;4.390;2022-10-26T13:11:42;15.38;;;8.05;;
21158;SDS011;10737;45.436;4.390;2022-10-26T13:16:46;13.77;;;7.50;;
21158;SDS011;10737;45.436;4.390;2022-10-26T13:21:50;23.52;;;17.08;;
21158;SDS011;10737;45.436;4.390;2022-10-26T13:32:16;10.77;;;6.53;;
21158;SDS011;10737;45.436;4.390;2022-10-26T13:37:22;28.02;;;18.90;;
21158;SDS011;10737;45.436;4.390;2022-10-26T13:42:27;12.70;;;7.80;;
21158;SDS011;10737;45.436;4.390;2022-10-26T13:47:34;17.77;;;11.80;;
21158;SDS011;10737;45.436;4.390;2022-10-26T13:52:44;20.00;;;9.20;;
21158;SDS011;10737;45.436;4.390;2022-10-26T13:57:50;15.50;;;7.95;;
21158;SDS011;10737;45.436;4.390;2022-10-26T14:02:58;22.83;;;10.82;;
21158;SDS011;10737;45.436;4.390;2022-10-26T14:08:03;18.65;;;11.15;;
21158;SDS011;10737;45.436;4.390;2022-10-26T14:13:07;13.77;;;8.75;;
21158;SDS011;10737;45.436;4.390;2022-10-26T14:18:12;16.02;;;12.98;;
21158;SDS011;10737;45.436;4.390;2022-10-26T14:23:26;17.08;;;9.10;;
21158;SDS011;10737;45.436;4.390;2022-10-26T14:28:30;18.50;;;9.68;;
21158;SDS011;10737;45.436;4.390;2022-10-26T14:33:33;17.63;;;9.55;;
21158;SDS011;10737;45.436;4.390;2022-10-26T14:38:40;37.22;;;24.42;;
21158;SDS011;10737;45.436;4.390;2022-10-26T14:43:47;20.95;;;14.60;;
21158;SDS011;10737;45.436;4.390;2022-10-26T14:48:51;17.65;;;8.75;;
21158;SDS011;10737;45.436;4.390;2022-10-26T14:53:57;17.02;;;7.97;;
21158;SDS011;10737;45.436;4.390;2022-10-26T14:59:08;17.63;;;8.80;;
21158;SDS011;10737;45.436;4.390;2022-10-26T15:04:20;22.58;;;13.52;;
21158;SDS011;10737;45.436;4.390;2022-10-26T15:09:42;12.93;;;9.40;;
21158;SDS011;10737;45.436;4.390;2022-10-26T15:14:46;15.73;;;10.13;;
21158;SDS011;10737;45.436;4.390;2022-10-26T15:19:50;22.23;;;16.33;;
21158;SDS011;10737;45.436;4.390;2022-10-26T15:24:56;14.45;;;10.05;;
21158;SDS011;10737;45.436;4.390;2022-10-26T15:35:33;18.83;;;9.30;;
21158;SDS011;10737;45.436;4.390;2022-10-26T15:40:40;19.05;;;11.60;;
21158;SDS011;10737;45.436;4.390;2022-10-26T15:45:44;24.45;;;14.00;;
21158;SDS011;10737;45.436;4.390;2022-10-26T15:50:49;22.13;;;14.25;;
21158;SDS011;10737;45.436;4.390;2022-10-26T15:55:55;24.42;;;15.63;;
21158;SDS011;10737;45.436;4.390;2022-10-26T16:00:58;16.90;;;9.02;;
21158;SDS011;10737;45.436;4.390;2022-10-26T16:06:02;23.50;;;12.18;;
21158;SDS011;10737;45.436;4.390;2022-10-26T16:11:08;18.92;;;9.25;;
21158;SDS011;10737;45.436;4.390;2022-10-26T16:16:11;18.75;;;9.57;;
21158;SDS011;10737;45.436;4.390;2022-10-26T16:21:15;20.73;;;9.75;;
21158;SDS011;10737;45.436;4.390;2022-10-26T16:26:21;17.00;;;10.43;;
21158;SDS011;10737;45.436;4.390;2022-10-26T16:31:24;20.90;;;11.20;;
21158;SDS011;10737;45.436;4.390;2022-10-26T16:36:28;13.10;;;10.07;;
21158;SDS011;10737;45.436;4.390;2022-10-26T16:41:35;15.00;;;10.70;;
21158;SDS011;10737;45.436;4.390;2022-10-26T16:46:38;55.25;;;40.33;;
21158;SDS011;10737;45.436;4.390;2022-10-26T16:51:41;49.50;;;32.97;;
21158;SDS011;10737;45.436;4.390;2022-10-26T16:56:46;39.33;;;28.02;;
21158;SDS011;10737;45.436;4.390;2022-10-26T17:01:49;26.88;;;12.82;;
21158;SDS011;10737;45.436;4.390;2022-10-26T17:06:53;22.42;;;13.55;;
21158;SDS011;10737;45.436;4.390;2022-10-26T17:11:57;19.48;;;12.90;;
21158;SDS011;10737;45.436;4.390;2022-10-26T17:17:02;28.90;;;17.42;;
21158;SDS011;10737;45.436;4.390;2022-10-26T17:22:06;29.90;;;21.73;;
21158;SDS011;10737;45.436;4.390;2022-10-26T17:27:12;26.55;;;12.93;;
21158;SDS011;10737;45.436;4.390;2022-10-26T17:32:17;22.67;;;12.43;;
21158;SDS011;10737;45.436;4.390;2022-10-26T17:37:20;25.23;;;19.38;;
21158;SDS011;10737;45.436;4.390;2022-10-26T17:42:25;24.08;;;15.52;;
21158;SDS011;10737;45.436;4.390;2022-10-26T17:47:28;30.20;;;15.88;;
21158;SDS011;10737;45.436;4.390;2022-10-26T17:52:31;24.42;;;13.30;;
21158;SDS011;10737;45.436;4.390;2022-10-26T17:57:36;22.58;;;12.00;;
21158;SDS011;10737;45.436;4.390;2022-10-26T18:02:39;18.40;;;12.50;;
21158;SDS011;10737;45.436;4.390;2022-10-26T18:07:42;36.13;;;23.48;;
21158;SDS011;10737;45.436;4.390;2022-10-26T18:12:47;20.88;;;13.35;;
21158;SDS011;10737;45.436;4.390;2022-10-26T18:17:51;20.88;;;13.68;;
21158;SDS011;10737;45.436;4.390;2022-10-26T18:22:56;24.23;;;14.93;;
21158;SDS011;10737;45.436;4.390;2022-10-26T18:28:00;17.83;;;9.98;;
21158;SDS011;10737;45.436;4.390;2022-10-26T18:33:04;19.13;;;12.45;;
21158;SDS011;10737;45.436;4.390;2022-10-26T18:38:07;30.88;;;21.80;;
21158;SDS011;10737;45.436;4.390;2022-10-26T18:43:12;22.20;;;16.17;;
21158;SDS011;10737;45.436;4.390;2022-10-26T18:48:15;29.52;;;20.15;;
21158;SDS011;10737;45.436;4.390;2022-10-26T18:53:18;25.92;;;15.10;;
21158;SDS011;10737;45.436;4.390;2022-10-26T18:58:23;22.40;;;14.60;;
21158;SDS011;10737;45.436;4.390;2022-10-26T19:03:26;30.25;;;19.30;;
21158;SDS011;10737;45.436;4.390;2022-10-26T19:08:30;21.63;;;13.25;;
21158;SDS011;10737;45.436;4.390;2022-10-26T19:13:35;39.70;;;25.50;;
21158;SDS011;10737;45.436;4.390;2022-10-26T19:18:39;23.35;;;15.13;;
21158;SDS011;10737;45.436;4.390;2022-10-26T19:23:45;14.80;;;11.80;;
21158;SDS011;10737;45.436;4.390;2022-10-26T19:28:53;16.65;;;12.82;;
21158;SDS011;10737;45.436;4.390;2022-10-26T19:33:59;22.55;;;16.60;;
21158;SDS011;10737;45.436;4.390;2022-10-26T19:39:02;20.33;;;12.55;;
21158;SDS011;10737;45.436;4.390;2022-10-26T19:44:08;21.38;;;16.25;;
21158;SDS011;10737;45.436;4.390;2022-10-26T19:49:11;33.20;;;20.88;;
21158;SDS011;10737;45.436;4.390;2022-10-26T19:54:17;39.00;;;31.40;;
21158;SDS011;10737;45.436;4.390;2022-10-26T19:59:22;35.38;;;20.02;;
21158;SDS011;10737;45.436;4.390;2022-10-26T20:04:27;36.10;;;26.13;;
21158;SDS011;10737;45.436;4.390;2022-10-26T20:09:33;45.55;;;29.65;;
21158;SDS011;10737;45.436;4.390;2022-10-26T20:14:38;21.42;;;15.98;;
21158;SDS011;10737;45.436;4.390;2022-10-26T20:19:42;36.58;;;25.73;;
21158;SDS011;10737;45.436;4.390;2022-10-26T20:24:45;40.03;;;27.83;;
21158;SDS011;10737;45.436;4.390;2022-10-26T20:29:51;27.98;;;17.65;;
21158;SDS011;10737;45.436;4.390;2022-10-26T20:34:54;23.88;;;14.15;;
21158;SDS011;10737;45.436;4.390;2022-10-26T20:39:59;44.17;;;26.55;;
21158;SDS011;10737;45.436;4.390;2022-10-26T20:45:09;30.92;;;18.00;;
21158;SDS011;10737;45.436;4.390;2022-10-26T20:50:13;25.75;;;19.30;;
21158;SDS011;10737;45.436;4.390;2022-10-26T20:55:17;20.73;;;12.82;;
21158;SDS011;10737;45.436;4.390;2022-10-26T21:00:28;41.92;;;28.60;;
21158;SDS011;10737;45.436;4.390;2022-10-26T21:05:34;19.13;;;11.43;;
21158;SDS011;10737;45.436;4.390;2022-10-26T21:10:37;18.35;;;13.18;;
21158;SDS011;10737;45.436;4.390;2022-10-26T21:15:43;13.27;;;9.70;;
21158;SDS011;10737;45.436;4.390;2022-10-26T21:20:46;22.23;;;15.27;;
21158;SDS011;10737;45.436;4.390;2022-10-26T21:25:53;24.02;;;16.02;;
21158;SDS011;10737;45.436;4.390;2022-10-26T21:31:00;26.73;;;18.75;;
21158;SDS011;10737;45.436;4.390;2022-10-26T21:36:07;23.92;;;17.10;;
21158;SDS011;10737;45.436;4.390;2022-10-26T21:41:12;33.10;;;26.52;;
21158;SDS011;10737;45.436;4.390;2022-10-26T21:46:19;26.98;;;16.98;;
21158;SDS011;10737;45.436;4.390;2022-10-26T21:51:23;18.20;;;13.63;;
21158;SDS011;10737;45.436;4.390;2022-10-26T21:56:27;18.02;;;13.13;;
21158;SDS011;10737;45.436;4.390;2022-10-26T22:01:32;27.38;;;18.85;;
21158;SDS011;10737;45.436;4.390;2022-10-26T22:06:35;24.48;;;17.35;;
21158;SDS011;10737;45.436;4.390;2022-10-26T22:11:39;36.28;;;27.70;;
21158;SDS011;10737;45.436;4.390;2022-10-26T22:16:44;19.10;;;12.80;;
21158;SDS011;10737;45.436;4.390;2022-10-26T22:21:48;24.05;;;15.80;;
21158;SDS011;10737;45.436;4.390;2022-10-26T22:26:51;22.23;;;12.52;;
21158;SDS011;10737;45.436;4.390;2022-10-26T22:31:56;23.17;;;12.35;;
21158;SDS011;10737;45.436;4.390;2022-10-26T22:37:00;16.85;;;11.50;;
21158;SDS011;10737;45.436;4.390;2022-10-26T22:42:03;15.43;;;9.45;;
21158;SDS011;10737;45.436;4.390;2022-10-26T22:47:08;16.17;;;9.48;;
21158;SDS011;10737;45.436;4.390;2022-10-26T22:52:11;13.55;;;10.48;;
21158;SDS011;10737;45.436;4.390;2022-10-26T22:57:14;16.00;;;8.88;;
21158;SDS011;10737;45.436;4.390;2022-10-26T23:02:19;17.10;;;9.80;;
21158;SDS011;10737;45.436;4.390;2022-10-26T23:07:24;14.07;;;9.18;;
21158;SDS011;10737;45.436;4.390;2022-10-26T23:12:27;14.77;;;9.30;;
21158;SDS011;10737;45.436;4.390;2022-10-26T23:17:32;21.00;;;13.70;;
21158;SDS011;10737;45.436;4.390;2022-10-26T23:22:36;13.95;;;8.73;;
21158;SDS011;10737;45.436;4.390;2022-10-26T23:27:39;15.68;;;9.60;;
21158;SDS011;10737;45.436;4.390;2022-10-26T23:32:43;11.63;;;7.63;;
21158;SDS011;10737;45.436;4.390;2022-10-26T23:37:46;11.85;;;7.68;;
21158;SDS011;10737;45.436;4.390;2022-10-26T23:42:50;9.95;;;7.85;;
21158;SDS011;10737;45.436;4.390;2022-10-26T23:47:54;13.35;;;9.23;;
21158;SDS011;10737;45.436;4.390;2022-10-26T23:52:57;12.65;;;7.95;;
21158;SDS011;10737;45.436;4.390;2022-10-26T23:58:00;8.65;;;7.30;;
